createdAt,value
2019-04-22T00:01:39.798Z,47.96
2019-04-22T00:07:32.311Z,48.26
2019-04-22T00:12:55.996Z,48.42
2019-04-22T00:18:26.646Z,48.89
2019-04-22T00:23:46.586Z,48.90
2019-04-22T00:29:24.407Z,49.08
2019-04-22T00:34:42.571Z,49.27
2019-04-22T00:40:09.378Z,49.61
2019-04-22T00:45:38.720Z,49.50
2019-04-22T00:51:08.763Z,49.81
2019-04-22T00:56:24.741Z,50.26
2019-04-22T01:01:54.388Z,51.14
2019-04-22T01:07:17.707Z,51.95
2019-04-22T01:12:44.051Z,53.15
2019-04-22T01:18:05.349Z,53.73
2019-04-22T01:23:29.628Z,54.65
2019-04-22T01:28:50.018Z,54.84
2019-04-22T01:34:23.416Z,55.34
2019-04-22T01:39:57.498Z,55.22
2019-04-22T01:45:26.749Z,55.17
2019-04-22T01:50:46.294Z,56.93
2019-04-22T01:56:13.627Z,57.12
2019-04-22T02:01:48.554Z,57.51
2019-04-22T02:07:26.966Z,57.44
2019-04-22T02:12:54.013Z,57.00
2019-04-22T02:18:18.002Z,56.89
2019-04-22T02:23:51.306Z,56.90
2019-04-22T02:29:09.252Z,57.92
2019-04-22T02:34:39.785Z,58.41
2019-04-22T02:40:03.689Z,57.84
2019-04-22T02:45:40.617Z,57.21
2019-04-22T02:56:27.149Z,56.08
2019-04-22T03:01:47.385Z,55.82
2019-04-22T03:07:09.314Z,55.88
2019-04-22T03:12:35.128Z,56.44
2019-04-22T03:23:45.915Z,56.46
2019-04-22T03:39:52.969Z,57.04
2019-04-22T03:45:26.356Z,56.97
2019-04-22T03:50:37.325Z,57.33
2019-04-22T04:07:15.109Z,57.92
2019-04-22T04:12:25.844Z,58.25
2019-04-22T04:17:51.548Z,58.41
2019-04-22T04:39:34.902Z,56.28
2019-04-22T04:50:17.886Z,52.40
2019-04-22T04:55:47.022Z,51.96
2019-04-22T05:06:51.533Z,48.30
2019-04-22T05:12:16.734Z,48.00
2019-04-22T05:17:37.476Z,47.74
2019-04-22T05:22:51.328Z,47.24
2019-04-22T05:28:16.504Z,46.39
2019-04-22T05:33:46.021Z,45.67
2019-04-22T05:39:11.146Z,45.62
2019-04-22T05:44:41.181Z,45.30
2019-04-22T05:50:05.462Z,44.55
2019-04-22T05:55:30.581Z,44.87
2019-04-22T06:01:29.347Z,45.44
2019-04-22T06:06:34.350Z,44.18
2019-04-22T06:11:55.537Z,44.88
2019-04-22T06:17:31.331Z,45.56
2019-04-22T06:22:58.761Z,45.01
2019-04-22T06:28:31.524Z,43.58
2019-04-22T06:33:48.425Z,42.63
2019-04-22T06:39:23.929Z,42.76
2019-04-22T06:44:36.550Z,42.81
2019-04-22T06:49:59.195Z,40.56
2019-04-22T07:00:59.012Z,39.60
2019-04-22T07:11:43.244Z,38.26
2019-04-22T07:17:07.580Z,38.33
2019-04-22T07:22:33.814Z,37.59
2019-04-22T07:27:58.317Z,36.86
2019-04-22T07:33:34.836Z,36.65
2019-04-22T07:38:47.189Z,36.16
2019-04-22T07:49:43.842Z,36.20
2019-04-22T07:55:05.559Z,34.89
2019-04-22T08:00:39.105Z,34.89
2019-04-22T08:06:18.204Z,34.88
2019-04-22T08:11:47.010Z,34.27
2019-04-22T08:17:01.446Z,34.87
2019-04-22T08:22:14.322Z,34.96
2019-04-22T08:27:42.869Z,33.22
2019-04-22T08:33:16.150Z,32.08
2019-04-22T08:38:45.194Z,29.98
2019-04-22T08:44:02.340Z,28.76
2019-04-22T08:49:33.207Z,28.26
2019-04-22T08:54:57.058Z,28.08
2019-04-22T09:00:20.075Z,28.51
2019-04-22T09:05:57.325Z,28.30
2019-04-22T09:11:18.274Z,27.98
2019-04-22T09:16:41.440Z,28.39
2019-04-22T09:22:08.002Z,29.22
2019-04-22T09:27:37.048Z,28.52
2019-04-22T09:32:54.429Z,28.28
2019-04-22T09:49:12.257Z,28.53
2019-04-22T10:00:02.238Z,28.04
2019-04-22T10:05:28.529Z,29.19
2019-04-22T10:10:58.256Z,28.21
2019-04-22T10:16:27.224Z,28.74
2019-04-22T10:27:07.949Z,26.90
2019-04-22T10:32:35.972Z,27.17
2019-04-22T10:37:36.815Z,28.49
2019-04-22T10:43:01.253Z,28.13
2019-04-22T10:48:26.196Z,27.50
2019-04-22T10:53:51.262Z,27.67
2019-04-22T10:59:16.414Z,26.35
2019-04-22T11:04:41.133Z,28.19
2019-04-22T11:10:26.007Z,26.84
2019-04-22T11:15:32.780Z,28.14
2019-04-22T11:20:57.822Z,27.35
2019-04-22T11:26:23.779Z,27.76
2019-04-22T11:31:48.515Z,27.92
2019-04-22T11:37:14.680Z,28.56
2019-04-22T11:42:38.684Z,28.84
2019-04-22T11:48:03.698Z,27.86
2019-04-22T11:53:29.011Z,29.53
2019-04-22T11:58:53.007Z,29.49
2019-04-22T12:04:17.990Z,29.90
2019-04-22T12:09:43.635Z,30.21
2019-04-22T12:15:08.898Z,29.46
2019-04-22T12:20:34.999Z,29.66
2019-04-22T12:26:04.276Z,27.93
2019-04-22T12:31:27.238Z,28.26
2019-04-22T12:36:51.575Z,28.69
2019-04-22T12:42:17.455Z,29.06
2019-04-22T12:47:42.336Z,27.09
2019-04-22T12:53:10.639Z,26.30
2019-04-22T12:58:33.752Z,27.82
2019-04-22T13:04:03.947Z,28.50
2019-04-22T13:09:25.215Z,26.95
2019-04-22T13:14:50.648Z,26.33
2019-04-22T13:20:18.022Z,29.06
2019-04-22T13:25:42.939Z,29.10
2019-04-22T13:31:07.876Z,28.55
2019-04-22T13:36:31.859Z,28.25
2019-04-22T13:42:02.087Z,28.23
2019-04-22T13:47:37.424Z,27.46
2019-04-22T13:53:28.849Z,27.21
2019-04-22T13:58:28.925Z,28.60
2019-04-22T14:04:18.475Z,28.53
2019-04-22T14:09:42.588Z,28.21
2019-04-22T14:15:07.499Z,28.94
2019-04-22T14:20:33.105Z,27.78
2019-04-22T14:25:59.114Z,28.04
2019-04-22T14:31:24.340Z,28.05
2019-04-22T14:36:49.323Z,26.84
2019-04-22T14:42:38.482Z,27.82
2019-04-22T14:48:07.204Z,27.07
2019-04-22T14:53:29.365Z,29.26
2019-04-22T14:58:33.038Z,28.66
2019-04-22T15:03:58.654Z,28.03
2019-04-22T15:09:24.122Z,28.88
2019-04-22T15:14:49.370Z,28.53
2019-04-22T15:20:34.023Z,28.75
2019-04-22T15:25:58.956Z,29.21
2019-04-22T15:31:23.627Z,29.47
2019-04-22T15:36:48.507Z,29.00
2019-04-22T15:42:20.782Z,29.83
2019-04-22T15:47:39.885Z,30.15
2019-04-22T15:53:04.709Z,30.79
2019-04-22T15:58:30.150Z,30.89
2019-04-22T16:03:54.747Z,31.11
2019-04-22T16:09:19.008Z,31.21
2019-04-22T16:14:47.743Z,32.10
2019-04-22T16:20:09.202Z,31.51
2019-04-22T16:25:49.291Z,32.09
2019-04-22T16:31:13.636Z,32.27
2019-04-22T16:36:38.834Z,32.85
2019-04-22T16:42:04.659Z,33.10
2019-04-22T16:47:29.336Z,33.22
2019-04-22T16:52:54.390Z,33.93
2019-04-22T16:58:18.911Z,34.42
2019-04-22T17:04:16.429Z,34.34
2019-04-22T17:09:41.618Z,35.52
2019-04-22T17:15:10.203Z,36.29
2019-04-22T17:20:34.130Z,36.68
2019-04-22T17:25:58.796Z,37.21
2019-04-22T17:31:24.815Z,37.92
2019-04-22T17:36:50.991Z,38.80
2019-04-22T17:42:39.874Z,39.82
2019-04-22T17:48:25.769Z,40.42
2019-04-22T17:53:54.729Z,40.49
2019-04-22T17:59:18.655Z,40.88
2019-04-22T18:04:16.619Z,41.48
2019-04-22T18:15:29.414Z,42.48
2019-04-22T18:20:48.929Z,43.10
2019-04-22T18:26:17.040Z,43.36
2019-04-22T18:31:37.226Z,44.11
2019-04-22T18:37:05.806Z,44.42
2019-04-22T18:42:35.040Z,44.89
2019-04-22T18:47:54.560Z,45.34
2019-04-22T18:54:01.846Z,45.73
2019-04-22T18:59:12.406Z,46.25
2019-04-22T19:04:40.978Z,46.70
2019-04-22T19:10:17.414Z,47.12
2019-04-22T19:15:48.832Z,47.40
2019-04-22T19:21:20.826Z,47.65
2019-04-22T19:26:44.419Z,47.89
2019-04-22T19:31:57.356Z,48.47
2019-04-22T19:37:25.820Z,48.41
2019-04-22T19:42:58.011Z,48.41
2019-04-22T19:48:28.299Z,48.50
2019-04-22T19:53:47.113Z,48.82
2019-04-22T19:59:05.202Z,48.66
2019-04-22T20:04:47.393Z,49.26
2019-04-22T20:10:10.581Z,49.24
2019-04-22T20:15:30.325Z,49.24
2019-04-22T20:21:04.551Z,49.92
2019-04-22T20:26:17.909Z,50.01
2019-04-22T20:31:54.601Z,50.00
2019-04-22T20:37:23.622Z,50.20
2019-04-22T20:42:48.655Z,50.41
2019-04-22T20:47:58.817Z,50.64
2019-04-22T20:53:36.532Z,51.20
2019-04-22T20:59:05.015Z,50.84
2019-04-22T21:04:19.619Z,50.58
2019-04-22T21:09:48.773Z,50.83
2019-04-22T21:15:25.525Z,50.81
2019-04-22T21:20:43.318Z,50.59
2019-04-22T21:26:08.288Z,51.23
2019-04-22T21:31:53.176Z,51.36
2019-04-22T21:37:07.883Z,51.59
2019-04-22T21:42:28.492Z,51.27
2019-04-22T21:48:05.251Z,51.77
2019-04-22T21:53:22.738Z,52.38
2019-04-22T21:58:57.349Z,52.50
2019-04-22T22:04:17.349Z,52.92
2019-04-22T22:09:42.874Z,52.95
2019-04-22T22:15:07.150Z,53.25
2019-04-22T22:20:43.263Z,53.53
2019-04-22T22:25:59.545Z,53.80
2019-04-22T22:31:36.685Z,53.96
2019-04-22T22:36:46.444Z,53.82
2019-04-22T22:41:59.572Z,54.47
2019-04-22T22:47:45.771Z,54.61
2019-04-22T22:53:25.581Z,54.98
2019-04-22T22:58:42.551Z,55.17
2019-04-22T23:04:05.415Z,55.40
2019-04-22T23:09:30.826Z,55.67
2019-04-22T23:14:54.131Z,55.59
2019-04-22T23:20:04.967Z,55.57
2019-04-22T23:25:53.719Z,55.80
2019-04-22T23:31:14.127Z,55.61
2019-04-22T23:37:04.353Z,55.84
2019-04-22T23:42:33.423Z,56.03
2019-04-22T23:47:48.591Z,55.46
2019-04-22T23:53:55.571Z,55.55
2019-04-22T23:59:02.638Z,55.37
